createdAt,value
2023-01-06T00:00:16.834Z,17.70
2023-01-06T00:01:15.084Z,17.68
2023-01-06T00:02:15.823Z,17.69
2023-01-06T00:03:15.011Z,17.67
2023-01-06T00:04:15.575Z,17.66
2023-01-06T00:05:15.479Z,17.69
2023-01-06T00:06:15.662Z,17.67
2023-01-06T00:07:15.214Z,17.70
2023-01-06T00:08:15.505Z,17.68
2023-01-06T00:09:15.479Z,17.68
2023-01-06T00:10:15.582Z,17.68
2023-01-06T00:11:15.053Z,17.70
2023-01-06T00:12:15.629Z,17.65
2023-01-06T00:13:15.275Z,17.62
2023-01-06T00:14:15.357Z,17.64
2023-01-06T00:15:16.452Z,17.67
2023-01-06T00:16:16.033Z,17.66
2023-01-06T00:17:15.694Z,17.71
2023-01-06T00:18:16.325Z,17.70
2023-01-06T00:19:15.408Z,17.71
2023-01-06T00:20:15.886Z,17.73
2023-01-06T00:21:15.645Z,17.75
2023-01-06T00:22:15.954Z,17.76
2023-01-06T00:23:15.529Z,17.78
2023-01-06T00:24:16.247Z,17.80
2023-01-06T00:25:15.868Z,17.78
2023-01-06T00:26:15.365Z,17.78
2023-01-06T00:27:15.462Z,17.77
2023-01-06T00:28:16.115Z,17.82
2023-01-06T00:29:15.431Z,17.82
2023-01-06T00:30:16.767Z,17.81
2023-01-06T00:31:15.490Z,17.81
2023-01-06T00:32:15.119Z,17.84
2023-01-06T00:33:15.808Z,17.81
2023-01-06T00:34:15.500Z,17.79
2023-01-06T00:35:16.226Z,17.67
2023-01-06T00:36:16.011Z,17.70
2023-01-06T00:37:15.396Z,17.67
2023-01-06T00:38:15.735Z,17.65
2023-01-06T00:39:15.311Z,17.56
2023-01-06T00:40:15.875Z,17.37
2023-01-06T00:41:15.819Z,17.40
2023-01-06T00:42:15.502Z,17.5
2023-01-06T00:43:15.168Z,17.54
2023-01-06T00:44:15.920Z,17.60
2023-01-06T00:45:16.128Z,17.63
2023-01-06T00:46:15.312Z,17.66
2023-01-06T00:47:16.175Z,17.66
2023-01-06T00:48:16.198Z,17.63
2023-01-06T00:49:15.992Z,17.65
2023-01-06T00:50:16.026Z,17.68
2023-01-06T00:51:15.411Z,17.66
2023-01-06T00:52:14.683Z,17.59
2023-01-06T00:53:15.505Z,17.55
2023-01-06T00:54:15.408Z,17.62
2023-01-06T00:55:15.540Z,17.65
2023-01-06T00:56:15.537Z,17.70
2023-01-06T00:57:15.855Z,17.70
2023-01-06T00:58:15.347Z,17.72
2023-01-06T00:59:16.366Z,17.73
2023-01-06T01:00:17.299Z,17.73
2023-01-06T01:01:18.634Z,17.73
2023-01-06T01:02:16.095Z,17.70
2023-01-06T01:03:16.258Z,17.68
2023-01-06T01:04:16.021Z,17.72
2023-01-06T01:05:16.060Z,17.72
2023-01-06T01:06:15.675Z,17.75
2023-01-06T01:07:15.491Z,17.75
2023-01-06T01:08:15.999Z,17.76
2023-01-06T01:09:15.831Z,17.77
2023-01-06T01:10:15.631Z,17.78
2023-01-06T01:11:15.837Z,17.79
2023-01-06T01:12:15.578Z,17.79
2023-01-06T01:13:15.011Z,17.79
2023-01-06T01:14:15.870Z,17.79
2023-01-06T01:15:16.193Z,17.81
2023-01-06T01:16:15.829Z,17.81
2023-01-06T01:17:15.741Z,17.81
2023-01-06T01:18:15.299Z,17.79
2023-01-06T01:19:16.086Z,17.81
2023-01-06T01:20:15.713Z,17.79
2023-01-06T01:21:15.372Z,17.81
2023-01-06T01:22:15.908Z,17.81
2023-01-06T01:23:15.657Z,17.83
2023-01-06T01:24:15.694Z,17.81
2023-01-06T01:25:15.917Z,17.85
2023-01-06T01:26:15.455Z,17.84
2023-01-06T01:27:16.293Z,17.85
2023-01-06T01:28:15.629Z,17.85
2023-01-06T01:29:15.770Z,17.85
2023-01-06T01:30:23.521Z,17.86
2023-01-06T01:31:16.479Z,17.86
2023-01-06T01:32:15.380Z,17.85
2023-01-06T01:33:16.074Z,17.85
2023-01-06T01:34:15.746Z,17.83
2023-01-06T01:35:15.418Z,17.85
2023-01-06T01:36:15.930Z,17.82
2023-01-06T01:37:16.211Z,17.82
2023-01-06T01:38:16.275Z,17.81
2023-01-06T01:39:15.995Z,17.79
2023-01-06T01:40:15.948Z,17.79
2023-01-06T01:41:16.206Z,17.79
2023-01-06T01:42:15.782Z,17.78
2023-01-06T01:43:15.790Z,17.77
2023-01-06T01:44:15.006Z,17.77
2023-01-06T01:45:15.958Z,17.76
2023-01-06T01:46:15.713Z,17.77
2023-01-06T01:47:15.918Z,17.75
2023-01-06T01:48:15.624Z,17.75
2023-01-06T01:49:15.221Z,17.76
2023-01-06T01:50:16.089Z,17.75
2023-01-06T01:51:15.469Z,17.74
2023-01-06T01:52:16.245Z,17.74
2023-01-06T01:53:15.954Z,17.70
2023-01-06T01:54:15.865Z,17.70
2023-01-06T01:55:15.837Z,17.69
2023-01-06T01:56:15.442Z,17.66
2023-01-06T01:57:16.294Z,17.62
2023-01-06T01:58:15.911Z,17.63
2023-01-06T01:59:16.197Z,17.64
2023-01-06T02:00:17.472Z,17.63
2023-01-06T02:01:15.569Z,17.64
2023-01-06T02:02:16.305Z,17.63
2023-01-06T02:03:15.435Z,17.64
2023-01-06T02:04:16.043Z,17.67
2023-01-06T02:05:15.997Z,17.67
2023-01-06T02:06:15.594Z,17.67
2023-01-06T02:07:16.051Z,17.59
2023-01-06T02:08:15.877Z,17.61
2023-01-06T02:09:15.894Z,17.63
2023-01-06T02:10:16.295Z,17.62
2023-01-06T02:11:15.326Z,17.65
2023-01-06T02:12:16.158Z,17.64
2023-01-06T02:13:15.750Z,17.64
2023-01-06T02:14:15.352Z,17.64
2023-01-06T02:15:16.333Z,17.65
2023-01-06T02:16:15.439Z,17.68
2023-01-06T02:17:15.444Z,17.61
2023-01-06T02:19:14.963Z,17.62
2023-01-06T02:20:15.531Z,17.63
2023-01-06T02:21:16.097Z,17.63
2023-01-06T02:22:15.257Z,17.62
2023-01-06T02:23:15.779Z,17.61
2023-01-06T02:24:15.307Z,17.54
2023-01-06T02:25:16.365Z,17.55
2023-01-06T02:26:15.791Z,17.56
2023-01-06T02:27:15.536Z,17.58
2023-01-06T02:28:15.079Z,17.59
2023-01-06T02:29:15.668Z,17.57
2023-01-06T02:30:16.480Z,17.59
2023-01-06T02:31:15.223Z,17.60
2023-01-06T02:32:16.081Z,17.57
2023-01-06T02:33:15.328Z,17.56
2023-01-06T02:34:15.861Z,17.56
2023-01-06T02:35:15.828Z,17.57
2023-01-06T02:36:15.817Z,17.55
2023-01-06T02:37:15.535Z,17.56
2023-01-06T02:38:16.051Z,17.56
2023-01-06T02:39:16.379Z,17.57
2023-01-06T02:40:16.445Z,17.57
2023-01-06T02:41:15.536Z,17.56
2023-01-06T02:42:15.876Z,17.56
2023-01-06T02:43:15.324Z,17.56
2023-01-06T02:44:15.583Z,17.57
2023-01-06T02:45:15.687Z,17.55
2023-01-06T02:46:15.113Z,17.59
2023-01-06T02:47:15.471Z,17.56
2023-01-06T02:48:15.866Z,17.56
2023-01-06T02:49:15.851Z,17.56
2023-01-06T02:50:15.132Z,17.57
2023-01-06T02:51:15.581Z,17.56
2023-01-06T02:52:15.534Z,17.56
2023-01-06T02:53:15.796Z,17.59
2023-01-06T02:54:15.159Z,17.57
2023-01-06T02:55:15.957Z,17.60
2023-01-06T02:56:15.881Z,17.60
2023-01-06T02:57:15.526Z,17.59
2023-01-06T02:58:16.051Z,17.57
2023-01-06T02:59:15.481Z,17.57
2023-01-06T03:00:16.522Z,17.56
2023-01-06T03:01:14.836Z,17.52
2023-01-06T03:02:15.372Z,17.51
2023-01-06T03:03:16.003Z,17.47
2023-01-06T03:04:15.499Z,17.47
2023-01-06T03:05:15.602Z,17.45
2023-01-06T03:06:15.549Z,17.43
2023-01-06T03:07:15.496Z,17.44
2023-01-06T03:08:16.157Z,17.43
2023-01-06T03:09:15.914Z,17.44
2023-01-06T03:10:15.402Z,17.45
2023-01-06T03:11:15.771Z,17.35
2023-01-06T03:12:15.877Z,17.32
2023-01-06T03:13:15.305Z,17.36
2023-01-06T03:14:15.913Z,17.32
2023-01-06T03:15:15.738Z,17.35
2023-01-06T03:16:15.362Z,17.37
2023-01-06T03:17:15.332Z,17.34
2023-01-06T03:18:15.898Z,17.14
2023-01-06T03:19:15.480Z,17.13
2023-01-06T03:20:16.331Z,17.15
2023-01-06T03:21:15.671Z,17.23
2023-01-06T03:22:15.239Z,17.15
2023-01-06T03:23:15.618Z,17.16
2023-01-06T03:24:15.705Z,17.19
2023-01-06T03:25:15.353Z,17.14
2023-01-06T03:26:15.628Z,17.15
2023-01-06T03:27:16.092Z,17.13
2023-01-06T03:28:15.201Z,17.20
2023-01-06T03:29:15.757Z,17.19
2023-01-06T03:30:15.388Z,16.99
2023-01-06T03:31:15.246Z,16.93
2023-01-06T03:32:16.039Z,17
2023-01-06T03:33:15.471Z,16.92
2023-01-06T03:34:15.948Z,16.85
2023-01-06T03:35:15.660Z,16.79
2023-01-06T03:36:15.656Z,16.91
2023-01-06T03:37:15.323Z,17.00
2023-01-06T03:38:15.646Z,17.06
2023-01-06T03:39:15.496Z,16.97
2023-01-06T03:40:16.356Z,16.92
2023-01-06T03:41:15.199Z,16.91
2023-01-06T03:42:27.448Z,16.89
2023-01-06T03:43:15.291Z,16.89
2023-01-06T03:44:15.789Z,16.79
2023-01-06T03:45:15.369Z,16.78
2023-01-06T03:46:15.754Z,16.73
2023-01-06T03:47:20.418Z,16.75
2023-01-06T03:48:15.495Z,16.89
2023-01-06T03:49:20.848Z,16.93
2023-01-06T03:50:15.215Z,16.90
2023-01-06T03:51:15.606Z,16.83
2023-01-06T03:52:15.674Z,16.87
2023-01-06T03:53:15.147Z,16.86
2023-01-06T03:54:15.941Z,16.73
2023-01-06T03:55:15.683Z,16.74
2023-01-06T03:56:14.983Z,16.73
2023-01-06T03:57:15.607Z,16.73
2023-01-06T03:58:15.796Z,16.75
2023-01-06T03:59:15.063Z,16.80
2023-01-06T04:00:16.531Z,16.76
2023-01-06T04:01:15.412Z,16.70
2023-01-06T04:02:15.443Z,16.69
2023-01-06T04:03:15.389Z,16.75
2023-01-06T04:04:15.873Z,16.79
2023-01-06T04:05:15.899Z,16.72
2023-01-06T04:06:15.283Z,16.81
2023-01-06T04:07:15.808Z,16.88
2023-01-06T04:08:15.374Z,16.76
2023-01-06T04:09:15.522Z,16.76
2023-01-06T04:10:16.133Z,16.79
2023-01-06T04:11:15.463Z,16.85
2023-01-06T04:12:15.801Z,16.76
2023-01-06T04:13:15.482Z,16.75
2023-01-06T04:14:15.800Z,16.83
2023-01-06T04:15:15.421Z,16.81
2023-01-06T04:16:14.342Z,16.76
2023-01-06T04:17:15.460Z,16.79
2023-01-06T04:18:15.616Z,16.86
2023-01-06T04:19:15.158Z,16.87
2023-01-06T04:20:15.296Z,16.95
2023-01-06T04:21:15.778Z,16.96
2023-01-06T04:22:14.852Z,16.96
2023-01-06T04:23:15.055Z,16.98
2023-01-06T04:24:15.406Z,16.79
2023-01-06T04:25:15.129Z,16.81
2023-01-06T04:26:15.521Z,16.69
2023-01-06T04:27:15.551Z,16.74
2023-01-06T04:28:15.945Z,16.77
2023-01-06T04:29:15.376Z,16.76
2023-01-06T04:30:16.026Z,16.82
2023-01-06T04:31:15.412Z,16.82
2023-01-06T04:32:15.779Z,16.77
2023-01-06T04:33:15.599Z,16.73
2023-01-06T04:34:15.143Z,16.62
2023-01-06T04:35:15.807Z,16.67
2023-01-06T04:36:15.685Z,16.69
2023-01-06T04:37:15.779Z,16.73
2023-01-06T04:38:15.348Z,16.81
2023-01-06T04:39:15.827Z,16.88
2023-01-06T04:40:14.975Z,16.82
2023-01-06T04:41:15.529Z,16.71
2023-01-06T04:42:15.819Z,16.61
2023-01-06T04:43:15.330Z,16.49
2023-01-06T04:44:15.912Z,16.48
2023-01-06T04:45:15.613Z,16.53
2023-01-06T04:46:15.310Z,16.59
2023-01-06T04:47:16.116Z,16.67
2023-01-06T04:48:15.863Z,16.78
2023-01-06T04:49:15.309Z,16.86
2023-01-06T04:50:15.944Z,16.79
2023-01-06T04:51:15.375Z,16.75
2023-01-06T04:52:15.819Z,16.75
2023-01-06T04:53:15.416Z,16.75
2023-01-06T04:54:15.701Z,16.75
2023-01-06T04:55:15.224Z,16.77
2023-01-06T04:56:15.592Z,16.75
2023-01-06T04:57:16.072Z,16.80
2023-01-06T04:58:14.978Z,16.84
2023-01-06T04:59:15.573Z,16.89
2023-01-06T05:00:17.127Z,16.94
2023-01-06T05:01:16.458Z,16.96
2023-01-06T05:02:15.973Z,16.97
2023-01-06T05:03:15.304Z,17.02
2023-01-06T05:04:15.373Z,16.98
2023-01-06T05:05:16.226Z,16.94
2023-01-06T05:06:15.716Z,16.85
2023-01-06T05:07:15.346Z,16.73
2023-01-06T05:08:16.067Z,16.70
2023-01-06T05:09:15.817Z,16.70
2023-01-06T05:10:15.406Z,16.83
2023-01-06T05:11:15.497Z,16.93
2023-01-06T05:12:15.159Z,16.92
2023-01-06T05:13:15.273Z,16.87
2023-01-06T05:14:17.084Z,16.83
2023-01-06T05:15:15.795Z,16.77
2023-01-06T05:16:15.779Z,16.80
2023-01-06T05:17:15.804Z,16.87
2023-01-06T05:18:15.656Z,16.94
2023-01-06T05:19:15.340Z,16.91
2023-01-06T05:20:15.851Z,16.83
2023-01-06T05:21:15.109Z,16.87
2023-01-06T05:22:15.130Z,16.92
2023-01-06T05:23:15.625Z,16.95
2023-01-06T05:24:15.800Z,16.90
2023-01-06T05:25:16.048Z,16.87
2023-01-06T05:26:15.769Z,16.93
2023-01-06T05:27:15.641Z,16.94
2023-01-06T05:28:15.593Z,16.83
2023-01-06T05:29:15.144Z,16.87
2023-01-06T05:30:16.035Z,16.88
2023-01-06T05:31:15.761Z,16.72
2023-01-06T05:32:15.752Z,16.64
2023-01-06T05:33:16.075Z,16.62
2023-01-06T05:34:15.805Z,16.58
2023-01-06T05:35:15.599Z,16.60
2023-01-06T05:36:15.117Z,16.51
2023-01-06T05:37:15.930Z,16.5
2023-01-06T05:38:15.430Z,16.51
2023-01-06T05:39:15.285Z,16.47
2023-01-06T05:40:16.000Z,16.39
2023-01-06T05:41:15.860Z,16.35
2023-01-06T05:42:15.796Z,16.29
2023-01-06T05:43:15.515Z,16.36
2023-01-06T05:44:15.745Z,16.41
2023-01-06T05:45:14.060Z,16.52
2023-01-06T05:46:15.703Z,16.54
2023-01-06T05:47:15.949Z,16.48
2023-01-06T05:48:15.049Z,16.46
2023-01-06T05:49:15.919Z,16.51
2023-01-06T05:50:15.548Z,16.49
2023-01-06T05:51:15.672Z,16.35
2023-01-06T05:52:15.183Z,16.38
2023-01-06T05:53:15.577Z,16.29
2023-01-06T05:54:14.842Z,16.21
2023-01-06T05:55:15.766Z,16.23
2023-01-06T05:56:15.456Z,16.26
2023-01-06T05:57:15.189Z,16.30
2023-01-06T05:58:15.401Z,16.26
2023-01-06T05:59:15.098Z,16.21
2023-01-06T06:00:16.913Z,16.18
2023-01-06T06:01:16.732Z,16.15
2023-01-06T06:02:15.796Z,16.19
2023-01-06T06:03:15.715Z,16.22
2023-01-06T06:04:15.191Z,16.19
2023-01-06T06:05:15.903Z,16.16
2023-01-06T06:06:15.440Z,16.10
2023-01-06T06:07:15.355Z,16.10
2023-01-06T06:08:15.950Z,16.18
2023-01-06T06:09:15.942Z,16.15
2023-01-06T06:10:15.722Z,16.16
2023-01-06T06:11:15.352Z,16.11
2023-01-06T06:12:15.966Z,16.15
2023-01-06T06:13:15.607Z,16.18
2023-01-06T06:14:17.189Z,16.19
2023-01-06T06:15:16.145Z,16.16
2023-01-06T06:16:20.754Z,16.12
2023-01-06T06:17:16.241Z,16.14
2023-01-06T06:18:16.148Z,16.23
2023-01-06T06:19:15.881Z,16.26
2023-01-06T06:20:15.501Z,16.31
2023-01-06T06:21:16.285Z,16.28
2023-01-06T06:22:16.183Z,16.30
2023-01-06T06:23:16.567Z,16.29
2023-01-06T06:24:16.091Z,16.29
2023-01-06T06:25:15.557Z,16.28
2023-01-06T06:26:16.047Z,16.28
2023-01-06T06:27:16.008Z,16.29
2023-01-06T06:28:15.929Z,16.30
2023-01-06T06:29:15.812Z,16.22
2023-01-06T06:30:16.139Z,16.23
2023-01-06T06:31:16.057Z,16.26
2023-01-06T06:32:16.040Z,16.38
2023-01-06T06:33:15.761Z,16.33
2023-01-06T06:34:15.197Z,16.35
2023-01-06T06:35:15.982Z,16.33
2023-01-06T06:36:16.035Z,16.33
2023-01-06T06:37:16.144Z,16.31
2023-01-06T06:38:15.665Z,16.26
2023-01-06T06:39:15.967Z,16.29
2023-01-06T06:40:15.582Z,16.24
2023-01-06T06:41:15.482Z,16.30
2023-01-06T06:42:16.013Z,16.31
2023-01-06T06:43:15.954Z,16.36
2023-01-06T06:44:15.243Z,16.40
2023-01-06T06:45:16.477Z,16.40
2023-01-06T06:46:15.279Z,16.34
2023-01-06T06:47:15.909Z,16.34
2023-01-06T06:48:15.035Z,16.29
2023-01-06T06:49:15.605Z,16.29
2023-01-06T06:50:15.052Z,16.29
2023-01-06T06:51:15.386Z,16.23
2023-01-06T06:52:16.058Z,16.32
2023-01-06T06:53:15.567Z,16.29
2023-01-06T06:54:15.843Z,16.34
2023-01-06T06:55:15.387Z,16.34
2023-01-06T06:56:15.588Z,16.29
2023-01-06T06:57:15.572Z,16.29
2023-01-06T06:58:15.685Z,16.29
2023-01-06T06:59:14.918Z,16.32
2023-01-06T07:00:16.187Z,16.42
2023-01-06T07:01:15.545Z,16.35
2023-01-06T07:02:15.543Z,16.27
2023-01-06T07:03:14.922Z,16.23
2023-01-06T07:04:15.925Z,16.28
2023-01-06T07:05:16.226Z,16.34
2023-01-06T07:06:16.206Z,16.44
2023-01-06T07:07:15.123Z,16.42
2023-01-06T07:08:15.519Z,16.44
2023-01-06T07:09:15.324Z,16.38
2023-01-06T07:10:16.078Z,16.32
2023-01-06T07:11:15.029Z,16.32
2023-01-06T07:12:15.581Z,16.34
2023-01-06T07:13:15.281Z,16.34
2023-01-06T07:14:15.606Z,16.33
2023-01-06T07:15:15.414Z,16.35
2023-01-06T07:16:15.491Z,16.36
2023-01-06T07:17:15.988Z,16.36
2023-01-06T07:18:15.773Z,16.32
2023-01-06T07:19:15.035Z,16.26
2023-01-06T07:20:15.878Z,16.27
2023-01-06T07:21:15.871Z,16.28
2023-01-06T07:22:15.518Z,16.26
2023-01-06T07:23:15.258Z,16.18
2023-01-06T07:24:15.967Z,16.16
2023-01-06T07:25:16.035Z,16.18
2023-01-06T07:26:15.481Z,16.15
2023-01-06T07:27:15.929Z,16.17
2023-01-06T07:28:15.537Z,16.13
2023-01-06T07:29:15.911Z,16.03
2023-01-06T07:30:16.058Z,16.04
2023-01-06T07:31:16.035Z,16.05
2023-01-06T07:32:15.674Z,16.10
2023-01-06T07:33:15.842Z,16.03
2023-01-06T07:34:15.472Z,16.02
2023-01-06T07:35:16.095Z,16.04
2023-01-06T07:36:15.797Z,16.05
2023-01-06T07:37:16.005Z,16.07
2023-01-06T07:38:15.748Z,16.03
2023-01-06T07:39:15.849Z,16.05
2023-01-06T07:40:16.189Z,16.07
2023-01-06T07:41:15.691Z,16.10
2023-01-06T07:42:15.423Z,16.04
2023-01-06T07:43:15.531Z,16.05
2023-01-06T07:44:17.181Z,15.99
2023-01-06T07:45:15.833Z,15.95
2023-01-06T07:46:15.928Z,15.87
2023-01-06T07:47:15.988Z,15.88
2023-01-06T07:48:15.942Z,15.94
2023-01-06T07:49:15.945Z,15.92
2023-01-06T07:50:16.068Z,15.86
2023-01-06T07:51:15.697Z,15.90
2023-01-06T07:52:15.929Z,15.88
2023-01-06T07:53:16.342Z,15.90
2023-01-06T07:54:15.467Z,15.90
2023-01-06T07:55:15.546Z,15.88
2023-01-06T07:56:15.810Z,15.93
2023-01-06T07:57:17.922Z,15.89
2023-01-06T07:58:15.524Z,15.90
2023-01-06T07:59:15.489Z,15.89
2023-01-06T08:00:16.805Z,15.86
2023-01-06T08:01:15.426Z,15.87
2023-01-06T08:02:15.658Z,15.85
2023-01-06T08:03:15.915Z,15.88
2023-01-06T08:04:15.638Z,15.92
2023-01-06T08:05:16.001Z,15.84
2023-01-06T08:06:15.946Z,15.82
2023-01-06T08:07:16.204Z,15.88
2023-01-06T08:08:16.529Z,15.92
2023-01-06T08:09:15.676Z,15.87
2023-01-06T08:10:15.579Z,15.92
2023-01-06T08:11:15.571Z,15.89
2023-01-06T08:12:15.738Z,15.88
2023-01-06T08:13:15.712Z,15.87
2023-01-06T08:14:15.558Z,15.85
2023-01-06T08:15:15.752Z,15.92
2023-01-06T08:16:15.675Z,15.96
2023-01-06T08:17:15.836Z,15.91
2023-01-06T08:18:15.639Z,15.94
2023-01-06T08:19:15.504Z,15.94
2023-01-06T08:20:15.298Z,16.01
2023-01-06T08:21:16.137Z,16.03
2023-01-06T08:22:15.875Z,16.04
2023-01-06T08:23:16.129Z,16.09
2023-01-06T08:24:15.872Z,16.04
2023-01-06T08:25:16.197Z,16.06
2023-01-06T08:26:16.057Z,16.13
2023-01-06T08:27:15.375Z,16.20
2023-01-06T08:28:16.036Z,16.22
2023-01-06T08:29:15.516Z,16.23
2023-01-06T08:30:15.883Z,16.26
2023-01-06T08:31:16.072Z,16.18
2023-01-06T08:32:16.077Z,16.20
2023-01-06T08:33:21.222Z,16.25
2023-01-06T08:34:15.967Z,16.29
2023-01-06T08:35:21.334Z,16.33
2023-01-06T08:36:15.457Z,16.33
2023-01-06T08:37:15.664Z,16.35
2023-01-06T08:38:15.850Z,16.37
2023-01-06T08:39:15.505Z,16.36
2023-01-06T08:40:15.373Z,16.33
2023-01-06T08:41:15.435Z,16.32
2023-01-06T08:42:15.991Z,16.35
2023-01-06T08:43:15.992Z,16.38
2023-01-06T08:44:15.850Z,16.37
2023-01-06T08:45:16.554Z,16.44
2023-01-06T08:46:15.207Z,16.48
2023-01-06T08:47:15.962Z,16.54
2023-01-06T08:48:16.025Z,16.52
2023-01-06T08:49:24.227Z,16.55
2023-01-06T08:50:16.271Z,16.65
2023-01-06T08:51:15.874Z,16.64
2023-01-06T08:52:15.622Z,16.64
2023-01-06T08:53:16.029Z,16.62
2023-01-06T08:54:16.036Z,16.71
2023-01-06T08:55:29.976Z,16.70
2023-01-06T08:56:15.661Z,16.76
2023-01-06T08:57:29.660Z,16.83
2023-01-06T08:58:15.130Z,16.86
2023-01-06T08:59:16.179Z,16.89
2023-01-06T09:00:17.504Z,16.96
2023-01-06T09:01:15.716Z,16.98
2023-01-06T09:02:16.303Z,16.98
2023-01-06T09:03:15.309Z,16.99
2023-01-06T09:04:16.372Z,16.99
2023-01-06T09:05:16.697Z,17.04
2023-01-06T09:06:15.714Z,17.01
2023-01-06T09:07:15.866Z,17.01
2023-01-06T09:08:15.542Z,17.05
2023-01-06T09:09:15.533Z,17.06
2023-01-06T09:10:15.661Z,17.16
2023-01-06T09:11:16.182Z,17.17
2023-01-06T09:12:16.149Z,17.15
2023-01-06T09:13:15.714Z,17.16
2023-01-06T09:14:15.324Z,17.12
2023-01-06T09:15:15.569Z,17.10
2023-01-06T09:16:15.710Z,17.19
2023-01-06T09:17:16.067Z,17.11
2023-01-06T09:18:15.496Z,17.10
2023-01-06T09:19:15.992Z,17.05
2023-01-06T09:20:16.303Z,17.07
2023-01-06T09:21:15.448Z,17.09
2023-01-06T09:22:15.472Z,17.14
2023-01-06T09:23:15.699Z,17.10
2023-01-06T09:24:15.488Z,17.07
2023-01-06T09:25:16.071Z,17.10
2023-01-06T09:26:16.034Z,17.17
2023-01-06T09:27:15.863Z,17.15
2023-01-06T09:28:15.861Z,17.18
2023-01-06T09:29:15.853Z,17.23
2023-01-06T09:30:16.155Z,17.18
2023-01-06T09:31:15.271Z,17.17
2023-01-06T09:32:15.400Z,17.19
2023-01-06T09:33:15.619Z,17.18
2023-01-06T09:34:15.489Z,17.20
2023-01-06T09:35:16.236Z,17.26
2023-01-06T09:36:15.918Z,17.22
2023-01-06T09:37:15.822Z,17.21
2023-01-06T09:38:15.606Z,17.18
2023-01-06T09:39:15.624Z,17.18
2023-01-06T09:40:15.526Z,17.21
2023-01-06T09:41:15.620Z,17.20
2023-01-06T09:42:15.067Z,17.21
2023-01-06T09:43:15.739Z,17.20
2023-01-06T09:44:15.311Z,17.28
2023-01-06T09:45:15.589Z,17.33
2023-01-06T09:46:15.301Z,17.29
2023-01-06T09:47:15.795Z,17.28
2023-01-06T09:48:15.871Z,17.30
2023-01-06T09:49:15.708Z,17.31
2023-01-06T09:50:15.890Z,17.36
2023-01-06T09:51:15.682Z,17.40
2023-01-06T09:52:15.597Z,17.46
2023-01-06T09:53:15.667Z,17.50
2023-01-06T09:54:16.084Z,17.46
2023-01-06T09:55:15.745Z,17.5
2023-01-06T09:56:15.784Z,17.54
2023-01-06T09:57:15.816Z,17.51
2023-01-06T09:58:15.870Z,17.53
2023-01-06T09:59:16.113Z,17.59
2023-01-06T10:00:19.039Z,17.71
2023-01-06T10:01:20.356Z,17.78
2023-01-06T10:02:16.551Z,17.75
2023-01-06T10:03:15.993Z,17.67
2023-01-06T10:04:16.373Z,17.73
2023-01-06T10:05:17.421Z,17.74
2023-01-06T10:06:17.311Z,17.75
2023-01-06T10:07:16.498Z,17.77
2023-01-06T10:08:17.300Z,17.76
2023-01-06T10:09:16.279Z,17.78
2023-01-06T10:10:16.156Z,17.77
2023-01-06T10:11:16.263Z,17.81
2023-01-06T10:12:16.002Z,17.76
2023-01-06T10:13:16.098Z,17.77
2023-01-06T10:14:15.892Z,17.78
2023-01-06T10:15:16.312Z,17.79
2023-01-06T10:16:16.181Z,17.83
2023-01-06T10:17:16.066Z,17.83
2023-01-06T10:18:15.946Z,17.81
2023-01-06T10:19:16.498Z,17.84
2023-01-06T10:20:16.908Z,17.87
2023-01-06T10:21:16.413Z,17.90
2023-01-06T10:22:15.991Z,17.94
2023-01-06T10:23:15.867Z,17.92
2023-01-06T10:24:15.943Z,17.95
2023-01-06T10:25:16.570Z,18.02
2023-01-06T10:26:15.686Z,18.09
2023-01-06T10:27:16.177Z,18.10
2023-01-06T10:28:16.610Z,18.14
2023-01-06T10:29:15.720Z,18.20
2023-01-06T10:30:16.235Z,18.31
2023-01-06T10:31:16.300Z,18.26
2023-01-06T10:32:16.263Z,18.28
2023-01-06T10:33:16.089Z,18.33
2023-01-06T10:34:16.019Z,18.42
2023-01-06T10:35:16.496Z,18.47
2023-01-06T10:36:15.618Z,18.45
2023-01-06T10:37:16.295Z,18.44
2023-01-06T10:38:15.826Z,18.45
2023-01-06T10:39:16.164Z,18.49
2023-01-06T10:40:16.201Z,18.54
2023-01-06T10:41:15.872Z,18.62
2023-01-06T10:42:15.920Z,18.63
2023-01-06T10:43:15.825Z,18.69
2023-01-06T10:44:16.365Z,18.72
2023-01-06T10:45:16.210Z,18.71
2023-01-06T10:46:15.682Z,18.74
2023-01-06T10:47:16.324Z,18.81
2023-01-06T10:48:16.197Z,18.82
2023-01-06T10:49:16.161Z,18.81
2023-01-06T10:50:16.019Z,18.84
2023-01-06T10:51:15.809Z,18.85
2023-01-06T10:52:15.700Z,18.88
2023-01-06T10:53:15.751Z,18.91
2023-01-06T10:54:15.658Z,18.93
2023-01-06T10:55:16.159Z,18.96
2023-01-06T10:56:16.016Z,18.98
2023-01-06T10:57:16.335Z,19.02
2023-01-06T10:58:15.853Z,19.06
2023-01-06T10:59:16.284Z,19.18
2023-01-06T11:00:22.715Z,19.22
2023-01-06T11:01:16.459Z,19.32
2023-01-06T11:02:21.511Z,19.35
2023-01-06T11:03:32.369Z,19.40
2023-01-06T11:04:16.084Z,19.47
2023-01-06T11:05:16.050Z,19.56
2023-01-06T11:06:15.961Z,19.56
2023-01-06T11:07:16.252Z,19.61
2023-01-06T11:08:15.671Z,19.67
2023-01-06T11:09:16.052Z,19.67
2023-01-06T11:10:15.983Z,19.64
2023-01-06T11:11:26.849Z,19.67
2023-01-06T11:12:16.069Z,19.65
2023-01-06T11:13:15.996Z,19.63
2023-01-06T11:14:15.941Z,19.59
2023-01-06T11:15:17.068Z,19.54
2023-01-06T11:16:30.084Z,19.55
2023-01-06T11:17:16.397Z,19.57
2023-01-06T11:18:29.764Z,19.56
2023-01-06T11:19:16.271Z,19.53
2023-01-06T11:20:16.124Z,19.55
2023-01-06T11:21:16.261Z,19.59
2023-01-06T11:22:15.718Z,19.65
2023-01-06T11:23:16.475Z,19.69
2023-01-06T11:24:15.823Z,19.63
2023-01-06T11:25:16.397Z,19.60
2023-01-06T11:26:16.056Z,19.56
2023-01-06T11:27:16.165Z,19.56
2023-01-06T11:28:15.924Z,19.60
2023-01-06T11:29:16.502Z,19.61
2023-01-06T11:30:16.067Z,19.55
2023-01-06T11:31:16.548Z,19.55
2023-01-06T11:32:16.149Z,19.56
2023-01-06T11:33:16.607Z,19.54
2023-01-06T11:34:15.410Z,19.48
2023-01-06T11:35:16.306Z,19.45
2023-01-06T11:36:15.973Z,19.42
2023-01-06T11:37:16.490Z,19.39
2023-01-06T11:38:16.008Z,19.44
2023-01-06T11:39:16.078Z,19.44
2023-01-06T11:40:16.379Z,19.50
2023-01-06T11:41:16.059Z,19.46
2023-01-06T11:42:16.092Z,19.43
2023-01-06T11:43:16.277Z,19.43
2023-01-06T11:44:15.630Z,19.44
2023-01-06T11:45:16.176Z,19.45
2023-01-06T11:46:16.064Z,19.45
2023-01-06T11:47:16.221Z,19.46
2023-01-06T11:48:16.247Z,19.51
2023-01-06T11:49:17.178Z,19.50
2023-01-06T11:50:16.213Z,19.5
2023-01-06T11:51:16.359Z,19.51
2023-01-06T11:52:16.078Z,19.55
2023-01-06T11:53:16.476Z,19.56
2023-01-06T11:54:15.424Z,19.58
2023-01-06T11:55:16.131Z,19.60
2023-01-06T11:56:15.777Z,19.61
2023-01-06T11:57:15.653Z,19.60
2023-01-06T11:58:15.257Z,19.47
2023-01-06T11:59:16.157Z,19.49
2023-01-06T12:00:16.546Z,19.54
2023-01-06T12:01:16.093Z,19.57
2023-01-06T12:02:15.876Z,19.64
2023-01-06T12:03:16.358Z,19.64
2023-01-06T12:04:15.828Z,19.68
2023-01-06T12:05:16.284Z,19.68
2023-01-06T12:06:16.415Z,19.69
2023-01-06T12:07:16.127Z,19.76
2023-01-06T12:08:16.117Z,19.83
2023-01-06T12:09:16.415Z,19.86
2023-01-06T12:10:16.433Z,19.77
2023-01-06T12:11:15.818Z,19.72
2023-01-06T12:12:16.099Z,19.76
2023-01-06T12:13:16.215Z,19.78
2023-01-06T12:14:27.459Z,19.80
2023-01-06T12:15:16.257Z,19.81
2023-01-06T12:16:16.324Z,19.88
2023-01-06T12:17:16.161Z,19.94
2023-01-06T12:18:16.001Z,19.94
2023-01-06T12:19:16.181Z,19.97
2023-01-06T12:20:16.061Z,20.01
2023-01-06T12:21:16.244Z,20.01
2023-01-06T12:22:16.164Z,20.05
2023-01-06T12:23:16.071Z,20.04
2023-01-06T12:24:16.069Z,20.01
2023-01-06T12:25:16.760Z,20.04
2023-01-06T12:26:15.988Z,20.01
2023-01-06T12:27:16.117Z,19.93
2023-01-06T12:28:16.332Z,19.92
2023-01-06T12:29:16.423Z,19.96
2023-01-06T12:30:16.799Z,19.94
2023-01-06T12:31:16.053Z,19.86
2023-01-06T12:32:16.481Z,19.88
2023-01-06T12:33:16.119Z,19.85
2023-01-06T12:34:16.266Z,19.92
2023-01-06T12:35:16.641Z,19.90
2023-01-06T12:36:16.135Z,19.93
2023-01-06T12:37:16.461Z,20.01
2023-01-06T12:38:16.457Z,20.03
2023-01-06T12:39:16.283Z,20.04
2023-01-06T12:41:15.967Z,20.05
2023-01-06T12:42:16.058Z,20.07
2023-01-06T12:43:16.363Z,20.09
2023-01-06T12:44:16.347Z,20.10
2023-01-06T12:45:16.311Z,20.03
2023-01-06T12:46:16.402Z,20.02
2023-01-06T12:47:15.875Z,20.04
2023-01-06T12:48:16.108Z,20.02
2023-01-06T12:49:16.371Z,20.02
2023-01-06T12:50:16.726Z,20.03
2023-01-06T12:51:16.216Z,20.03
2023-01-06T12:52:16.009Z,20.07
2023-01-06T12:53:21.032Z,20.14
2023-01-06T12:54:15.914Z,20.17